sensor_id;sensor_type;location;lat;lon;timestamp;temperature;humidity
29547;DHT22;40782;47.264;11.330;2022-12-10T00:01:32;1.10;99.90
29547;DHT22;40782;47.264;11.330;2022-12-10T00:04:03;1.10;99.90
29547;DHT22;40782;47.264;11.330;2022-12-10T00:06:31;1.10;99.90
29547;DHT22;40782;47.264;11.330;2022-12-10T00:09:00;1.10;99.90
29547;DHT22;40782;47.264;11.330;2022-12-10T00:11:28;1.10;99.90
29547;DHT22;40782;47.264;11.330;2022-12-10T00:13:55;1.10;99.90
29547;DHT22;40782;47.264;11.330;2022-12-10T00:16:24;1.10;99.90
29547;DHT22;40782;47.264;11.330;2022-12-10T00:18:52;1.10;99.90
29547;DHT22;40782;47.264;11.330;2022-12-10T00:21:23;1.10;99.90
29547;DHT22;40782;47.264;11.330;2022-12-10T00:23:51;1.10;99.90
29547;DHT22;40782;47.264;11.330;2022-12-10T00:26:22;1.10;99.90
29547;DHT22;40782;47.264;11.330;2022-12-10T00:28:50;1.10;99.90
29547;DHT22;40782;47.264;11.330;2022-12-10T00:31:19;1.10;99.90
29547;DHT22;40782;47.264;11.330;2022-12-10T00:33:47;1.10;99.90
29547;DHT22;40782;47.264;11.330;2022-12-10T00:36:17;1.10;1.00
29547;DHT22;40782;47.264;11.330;2022-12-10T00:38:47;1.20;99.90
29547;DHT22;40782;47.264;11.330;2022-12-10T00:41:15;1.10;99.90
29547;DHT22;40782;47.264;11.330;2022-12-10T00:43:42;1.10;99.90
29547;DHT22;40782;47.264;11.330;2022-12-10T00:46:10;1.10;99.90
29547;DHT22;40782;47.264;11.330;2022-12-10T00:48:37;1.20;99.90
29547;DHT22;40782;47.264;11.330;2022-12-10T00:51:07;1.20;99.90
29547;DHT22;40782;47.264;11.330;2022-12-10T00:53:36;1.10;99.90
29547;DHT22;40782;47.264;11.330;2022-12-10T00:56:05;1.10;99.90
29547;DHT22;40782;47.264;11.330;2022-12-10T00:58:34;1.20;99.90
29547;DHT22;40782;47.264;11.330;2022-12-10T01:01:09;1.20;1.00
29547;DHT22;40782;47.264;11.330;2022-12-10T01:03:37;1.20;99.90
29547;DHT22;40782;47.264;11.330;2022-12-10T01:06:09;1.20;1.00
29547;DHT22;40782;47.264;11.330;2022-12-10T01:08:37;1.20;1.00
29547;DHT22;40782;47.264;11.330;2022-12-10T01:11:06;1.20;1.00
29547;DHT22;40782;47.264;11.330;2022-12-10T01:13:34;1.20;99.90
29547;DHT22;40782;47.264;11.330;2022-12-10T01:16:02;1.20;1.00
29547;DHT22;40782;47.264;11.330;2022-12-10T01:18:29;1.20;99.90
29547;DHT22;40782;47.264;11.330;2022-12-10T01:21:01;1.10;99.90
29547;DHT22;40782;47.264;11.330;2022-12-10T01:23:28;1.10;99.90
29547;DHT22;40782;47.264;11.330;2022-12-10T01:26:00;1.10;1.00
29547;DHT22;40782;47.264;11.330;2022-12-10T01:28:30;1.10;1.00
29547;DHT22;40782;47.264;11.330;2022-12-10T01:31:00;1.10;1.00
29547;DHT22;40782;47.264;11.330;2022-12-10T01:33:28;1.10;1.00
29547;DHT22;40782;47.264;11.330;2022-12-10T01:35:55;1.10;1.00
29547;DHT22;40782;47.264;11.330;2022-12-10T01:38:23;1.20;1.00
29547;DHT22;40782;47.264;11.330;2022-12-10T01:40:50;1.20;1.00
29547;DHT22;40782;47.264;11.330;2022-12-10T01:43:17;1.20;1.00
29547;DHT22;40782;47.264;11.330;2022-12-10T01:45:45;1.20;1.00
29547;DHT22;40782;47.264;11.330;2022-12-10T01:48:12;1.20;1.00
29547;DHT22;40782;47.264;11.330;2022-12-10T01:50:40;1.20;1.00
29547;DHT22;40782;47.264;11.330;2022-12-10T01:53:07;1.20;1.00
29547;DHT22;40782;47.264;11.330;2022-12-10T01:55:45;1.20;1.00
29547;DHT22;40782;47.264;11.330;2022-12-10T01:58:14;1.20;1.00
29547;DHT22;40782;47.264;11.330;2022-12-10T02:00:53;1.20;1.00
29547;DHT22;40782;47.264;11.330;2022-12-10T02:03:27;1.30;1.00
29547;DHT22;40782;47.264;11.330;2022-12-10T02:06:00;1.20;1.00
29547;DHT22;40782;47.264;11.330;2022-12-10T02:08:39;1.20;1.00
29547;DHT22;40782;47.264;11.330;2022-12-10T02:11:14;1.20;1.00
29547;DHT22;40782;47.264;11.330;2022-12-10T02:13:47;1.20;99.90
29547;DHT22;40782;47.264;11.330;2022-12-10T02:16:21;1.20;99.90
29547;DHT22;40782;47.264;11.330;2022-12-10T02:18:53;1.20;99.90
29547;DHT22;40782;47.264;11.330;2022-12-10T02:21:26;1.20;99.90
29547;DHT22;40782;47.264;11.330;2022-12-10T02:23:59;1.20;99.90
29547;DHT22;40782;47.264;11.330;2022-12-10T02:26:34;1.20;99.90
29547;DHT22;40782;47.264;11.330;2022-12-10T02:29:11;1.20;99.90
29547;DHT22;40782;47.264;11.330;2022-12-10T02:31:42;1.20;99.90
29547;DHT22;40782;47.264;11.330;2022-12-10T02:34:11;1.20;99.90
29547;DHT22;40782;47.264;11.330;2022-12-10T02:36:41;1.20;99.90
29547;DHT22;40782;47.264;11.330;2022-12-10T02:39:11;1.10;99.90
29547;DHT22;40782;47.264;11.330;2022-12-10T02:41:43;1.10;1.00
29547;DHT22;40782;47.264;11.330;2022-12-10T02:44:17;1.10;1.00
29547;DHT22;40782;47.264;11.330;2022-12-10T02:46:47;1.10;1.00
29547;DHT22;40782;47.264;11.330;2022-12-10T02:49:16;1.10;8.10
29547;DHT22;40782;47.264;11.330;2022-12-10T02:51:44;1.10;1.00
29547;DHT22;40782;47.264;11.330;2022-12-10T02:54:33;1.10;99.90
29547;DHT22;40782;47.264;11.330;2022-12-10T02:57:07;1.00;1.00
29547;DHT22;40782;47.264;11.330;2022-12-10T02:59:47;1.00;1.00
29547;DHT22;40782;47.264;11.330;2022-12-10T03:02:22;1.10;1.00
29547;DHT22;40782;47.264;11.330;2022-12-10T03:04:56;1.10;1.00
29547;DHT22;40782;47.264;11.330;2022-12-10T03:07:28;1.10;1.00
29547;DHT22;40782;47.264;11.330;2022-12-10T03:10:02;1.00;1.00
29547;DHT22;40782;47.264;11.330;2022-12-10T03:12:33;1.00;1.00
29547;DHT22;40782;47.264;11.330;2022-12-10T03:15:06;1.00;1.00
29547;DHT22;40782;47.264;11.330;2022-12-10T03:17:36;1.00;1.00
29547;DHT22;40782;47.264;11.330;2022-12-10T03:20:07;1.00;1.00
29547;DHT22;40782;47.264;11.330;2022-12-10T03:22:36;1.00;1.00
29547;DHT22;40782;47.264;11.330;2022-12-10T03:25:05;1.00;1.00
29547;DHT22;40782;47.264;11.330;2022-12-10T03:27:33;1.10;1.00
29547;DHT22;40782;47.264;11.330;2022-12-10T03:30:03;1.10;1.00
29547;DHT22;40782;47.264;11.330;2022-12-10T03:32:31;1.10;1.00
29547;DHT22;40782;47.264;11.330;2022-12-10T03:34:58;1.10;1.00
29547;DHT22;40782;47.264;11.330;2022-12-10T03:37:27;1.10;1.00
29547;DHT22;40782;47.264;11.330;2022-12-10T03:39:56;1.10;1.00
29547;DHT22;40782;47.264;11.330;2022-12-10T03:42:23;1.10;1.00
29547;DHT22;40782;47.264;11.330;2022-12-10T03:44:51;1.10;1.00
29547;DHT22;40782;47.264;11.330;2022-12-10T03:47:20;1.10;1.00
29547;DHT22;40782;47.264;11.330;2022-12-10T03:49:48;1.10;1.00
29547;DHT22;40782;47.264;11.330;2022-12-10T03:52:15;1.10;1.00
29547;DHT22;40782;47.264;11.330;2022-12-10T03:54:42;1.10;89.50
29547;DHT22;40782;47.264;11.330;2022-12-10T03:57:09;1.10;1.00
29547;DHT22;40782;47.264;11.330;2022-12-10T03:59:36;1.10;1.00
29547;DHT22;40782;47.264;11.330;2022-12-10T04:02:03;1.10;99.90
29547;DHT22;40782;47.264;11.330;2022-12-10T04:04:32;1.00;1.00
29547;DHT22;40782;47.264;11.330;2022-12-10T04:06:59;1.00;52.50
29547;DHT22;40782;47.264;11.330;2022-12-10T04:09:26;1.00;99.90
29547;DHT22;40782;47.264;11.330;2022-12-10T04:11:55;0.90;1.00
29547;DHT22;40782;47.264;11.330;2022-12-10T04:14:23;1.00;1.00
29547;DHT22;40782;47.264;11.330;2022-12-10T04:17:08;1.00;99.90
29547;DHT22;40782;47.264;11.330;2022-12-10T04:19:37;1.00;99.90
29547;DHT22;40782;47.264;11.330;2022-12-10T04:22:04;1.00;99.90
29547;DHT22;40782;47.264;11.330;2022-12-10T04:24:49;1.00;1.00
29547;DHT22;40782;47.264;11.330;2022-12-10T04:27:48;1.00;1.00
29547;DHT22;40782;47.264;11.330;2022-12-10T04:30:15;1.00;1.00
29547;DHT22;40782;47.264;11.330;2022-12-10T04:32:42;1.00;24.80
29547;DHT22;40782;47.264;11.330;2022-12-10T04:35:11;1.00;1.00
29547;DHT22;40782;47.264;11.330;2022-12-10T04:37:38;1.00;1.00
29547;DHT22;40782;47.264;11.330;2022-12-10T04:40:06;1.00;99.90
29547;DHT22;40782;47.264;11.330;2022-12-10T04:42:33;1.00;99.90
29547;DHT22;40782;47.264;11.330;2022-12-10T04:45:00;1.10;99.90
29547;DHT22;40782;47.264;11.330;2022-12-10T04:47:28;1.10;1.00
29547;DHT22;40782;47.264;11.330;2022-12-10T04:49:55;1.10;1.00
29547;DHT22;40782;47.264;11.330;2022-12-10T04:52:24;1.00;1.00
29547;DHT22;40782;47.264;11.330;2022-12-10T04:54:51;1.00;1.00
29547;DHT22;40782;47.264;11.330;2022-12-10T04:57:18;1.10;1.00
29547;DHT22;40782;47.264;11.330;2022-12-10T04:59:45;1.10;1.00
29547;DHT22;40782;47.264;11.330;2022-12-10T05:02:12;1.10;1.00
29547;DHT22;40782;47.264;11.330;2022-12-10T05:04:39;1.00;1.00
29547;DHT22;40782;47.264;11.330;2022-12-10T05:07:06;1.00;99.90
29547;DHT22;40782;47.264;11.330;2022-12-10T05:09:35;1.00;1.00
29547;DHT22;40782;47.264;11.330;2022-12-10T05:12:02;1.00;1.00
29547;DHT22;40782;47.264;11.330;2022-12-10T05:14:29;1.10;1.00
29547;DHT22;40782;47.264;11.330;2022-12-10T05:16:56;1.10;1.00
29547;DHT22;40782;47.264;11.330;2022-12-10T05:19:23;1.00;1.00
29547;DHT22;40782;47.264;11.330;2022-12-10T05:21:53;1.00;1.00
29547;DHT22;40782;47.264;11.330;2022-12-10T05:24:39;1.00;1.00
29547;DHT22;40782;47.264;11.330;2022-12-10T05:27:06;1.10;1.00
29547;DHT22;40782;47.264;11.330;2022-12-10T05:29:33;1.10;1.00
29547;DHT22;40782;47.264;11.330;2022-12-10T05:32:00;1.10;1.00
29547;DHT22;40782;47.264;11.330;2022-12-10T05:34:29;1.10;1.00
29547;DHT22;40782;47.264;11.330;2022-12-10T05:36:56;1.10;1.00
29547;DHT22;40782;47.264;11.330;2022-12-10T05:39:23;1.10;1.00
29547;DHT22;40782;47.264;11.330;2022-12-10T05:41:52;1.00;1.00
29547;DHT22;40782;47.264;11.330;2022-12-10T05:44:19;1.10;1.00
29547;DHT22;40782;47.264;11.330;2022-12-10T05:46:46;1.00;1.00
29547;DHT22;40782;47.264;11.330;2022-12-10T05:49:13;1.10;8.90
29547;DHT22;40782;47.264;11.330;2022-12-10T05:51:40;1.10;93.10
29547;DHT22;40782;47.264;11.330;2022-12-10T05:54:09;1.10;37.20
29547;DHT22;40782;47.264;11.330;2022-12-10T05:56:37;1.10;1.00
29547;DHT22;40782;47.264;11.330;2022-12-10T05:59:06;1.10;1.00
29547;DHT22;40782;47.264;11.330;2022-12-10T06:01:34;1.00;99.90
29547;DHT22;40782;47.264;11.330;2022-12-10T06:04:03;1.00;1.00
29547;DHT22;40782;47.264;11.330;2022-12-10T06:06:32;1.00;1.00
29547;DHT22;40782;47.264;11.330;2022-12-10T06:08:59;1.00;1.00
29547;DHT22;40782;47.264;11.330;2022-12-10T06:11:27;1.00;1.00
29547;DHT22;40782;47.264;11.330;2022-12-10T06:13:56;1.00;1.00
29547;DHT22;40782;47.264;11.330;2022-12-10T06:16:26;1.00;1.00
29547;DHT22;40782;47.264;11.330;2022-12-10T06:18:54;1.00;99.90
29547;DHT22;40782;47.264;11.330;2022-12-10T06:21:22;1.00;99.90
29547;DHT22;40782;47.264;11.330;2022-12-10T06:23:50;1.00;17.90
29547;DHT22;40782;47.264;11.330;2022-12-10T06:26:19;1.00;1.00
29547;DHT22;40782;47.264;11.330;2022-12-10T06:28:47;1.00;1.00
29547;DHT22;40782;47.264;11.330;2022-12-10T06:31:15;1.00;1.00
29547;DHT22;40782;47.264;11.330;2022-12-10T06:33:44;1.00;1.00
29547;DHT22;40782;47.264;11.330;2022-12-10T06:36:13;1.00;1.00
29547;DHT22;40782;47.264;11.330;2022-12-10T06:38:41;1.00;1.00
29547;DHT22;40782;47.264;11.330;2022-12-10T06:41:10;1.00;1.00
29547;DHT22;40782;47.264;11.330;2022-12-10T06:43:38;1.00;1.00
29547;DHT22;40782;47.264;11.330;2022-12-10T06:46:05;1.00;1.00
29547;DHT22;40782;47.264;11.330;2022-12-10T06:48:33;1.00;1.00
29547;DHT22;40782;47.264;11.330;2022-12-10T06:51:02;1.00;1.00
29547;DHT22;40782;47.264;11.330;2022-12-10T06:53:30;1.00;1.00
29547;DHT22;40782;47.264;11.330;2022-12-10T06:55:58;1.00;1.00
29547;DHT22;40782;47.264;11.330;2022-12-10T06:58:27;1.00;1.00
29547;DHT22;40782;47.264;11.330;2022-12-10T07:01:01;1.00;1.00
29547;DHT22;40782;47.264;11.330;2022-12-10T07:03:29;1.00;1.00
29547;DHT22;40782;47.264;11.330;2022-12-10T07:05:57;1.00;1.00
29547;DHT22;40782;47.264;11.330;2022-12-10T07:08:26;1.00;1.00
29547;DHT22;40782;47.264;11.330;2022-12-10T07:10:54;0.90;1.00
29547;DHT22;40782;47.264;11.330;2022-12-10T07:13:21;1.00;1.00
29547;DHT22;40782;47.264;11.330;2022-12-10T07:15:48;1.00;1.00
29547;DHT22;40782;47.264;11.330;2022-12-10T07:18:15;1.00;1.00
29547;DHT22;40782;47.264;11.330;2022-12-10T07:20:42;1.00;1.00
29547;DHT22;40782;47.264;11.330;2022-12-10T07:23:09;1.00;1.00
29547;DHT22;40782;47.264;11.330;2022-12-10T07:25:38;1.00;1.00
29547;DHT22;40782;47.264;11.330;2022-12-10T07:28:05;1.00;1.00
29547;DHT22;40782;47.264;11.330;2022-12-10T07:30:32;1.10;1.00
29547;DHT22;40782;47.264;11.330;2022-12-10T07:33:00;1.10;1.00
29547;DHT22;40782;47.264;11.330;2022-12-10T07:35:27;1.10;1.00
29547;DHT22;40782;47.264;11.330;2022-12-10T07:37:54;1.10;1.00
29547;DHT22;40782;47.264;11.330;2022-12-10T07:40:21;1.10;1.00
29547;DHT22;40782;47.264;11.330;2022-12-10T07:42:50;1.20;1.00
29547;DHT22;40782;47.264;11.330;2022-12-10T07:45:17;1.20;1.00
29547;DHT22;40782;47.264;11.330;2022-12-10T07:47:44;1.10;99.90
29547;DHT22;40782;47.264;11.330;2022-12-10T07:50:11;1.10;99.90
29547;DHT22;40782;47.264;11.330;2022-12-10T07:52:38;1.10;1.00
29547;DHT22;40782;47.264;11.330;2022-12-10T07:55:06;1.10;1.00
29547;DHT22;40782;47.264;11.330;2022-12-10T07:57:33;1.10;1.00
29547;DHT22;40782;47.264;11.330;2022-12-10T08:00:02;1.10;1.00
29547;DHT22;40782;47.264;11.330;2022-12-10T08:02:30;1.10;1.00
29547;DHT22;40782;47.264;11.330;2022-12-10T08:04:57;1.10;99.90
29547;DHT22;40782;47.264;11.330;2022-12-10T08:07:26;1.10;99.90
29547;DHT22;40782;47.264;11.330;2022-12-10T08:09:53;1.10;1.00
29547;DHT22;40782;47.264;11.330;2022-12-10T08:12:20;1.10;1.00
29547;DHT22;40782;47.264;11.330;2022-12-10T08:14:47;1.10;1.00
29547;DHT22;40782;47.264;11.330;2022-12-10T08:17:16;1.10;1.00
29547;DHT22;40782;47.264;11.330;2022-12-10T08:19:43;1.20;1.00
29547;DHT22;40782;47.264;11.330;2022-12-10T08:22:10;1.20;99.90
29547;DHT22;40782;47.264;11.330;2022-12-10T08:24:38;1.30;31.50
29547;DHT22;40782;47.264;11.330;2022-12-10T08:27:05;1.30;1.00
29547;DHT22;40782;47.264;11.330;2022-12-10T08:29:32;1.30;99.90
29547;DHT22;40782;47.264;11.330;2022-12-10T08:31:59;1.30;98.40
29547;DHT22;40782;47.264;11.330;2022-12-10T08:34:27;1.30;99.90
29547;DHT22;40782;47.264;11.330;2022-12-10T08:36:54;1.30;1.00
29547;DHT22;40782;47.264;11.330;2022-12-10T08:39:22;1.30;1.00
29547;DHT22;40782;47.264;11.330;2022-12-10T08:41:49;1.30;1.00
29547;DHT22;40782;47.264;11.330;2022-12-10T08:44:16;1.30;1.00
29547;DHT22;40782;47.264;11.330;2022-12-10T08:46:43;1.30;1.00
29547;DHT22;40782;47.264;11.330;2022-12-10T08:49:10;1.40;1.00
29547;DHT22;40782;47.264;11.330;2022-12-10T08:51:39;1.40;99.90
29547;DHT22;40782;47.264;11.330;2022-12-10T08:54:06;1.50;99.90
29547;DHT22;40782;47.264;11.330;2022-12-10T08:56:34;1.50;21.20
29547;DHT22;40782;47.264;11.330;2022-12-10T08:59:01;1.50;1.00
29547;DHT22;40782;47.264;11.330;2022-12-10T09:01:28;1.60;1.00
29547;DHT22;40782;47.264;11.330;2022-12-10T09:03:55;1.60;1.00
29547;DHT22;40782;47.264;11.330;2022-12-10T09:06:23;1.60;1.00
29547;DHT22;40782;47.264;11.330;2022-12-10T09:08:52;1.70;1.00
29547;DHT22;40782;47.264;11.330;2022-12-10T09:11:21;1.80;1.00
29547;DHT22;40782;47.264;11.330;2022-12-10T09:13:49;1.90;1.00
29547;DHT22;40782;47.264;11.330;2022-12-10T09:16:16;1.90;99.90
29547;DHT22;40782;47.264;11.330;2022-12-10T09:18:44;1.90;99.90
29547;DHT22;40782;47.264;11.330;2022-12-10T09:21:13;1.90;99.90
29547;DHT22;40782;47.264;11.330;2022-12-10T09:23:41;1.90;99.90
29547;DHT22;40782;47.264;11.330;2022-12-10T09:26:12;1.90;1.00
29547;DHT22;40782;47.264;11.330;2022-12-10T09:28:40;1.90;1.00
29547;DHT22;40782;47.264;11.330;2022-12-10T09:31:08;2.00;1.00
29547;DHT22;40782;47.264;11.330;2022-12-10T09:33:36;2.00;1.00
29547;DHT22;40782;47.264;11.330;2022-12-10T09:36:04;2.00;1.00
29547;DHT22;40782;47.264;11.330;2022-12-10T09:38:33;2.10;1.00
29547;DHT22;40782;47.264;11.330;2022-12-10T09:41:02;2.10;1.00
29547;DHT22;40782;47.264;11.330;2022-12-10T09:43:42;2.10;1.00
29547;DHT22;40782;47.264;11.330;2022-12-10T09:46:18;2.10;1.00
29547;DHT22;40782;47.264;11.330;2022-12-10T09:48:57;2.00;99.90
29547;DHT22;40782;47.264;11.330;2022-12-10T09:51:29;2.00;99.90
29547;DHT22;40782;47.264;11.330;2022-12-10T09:53:57;2.00;99.90
29547;DHT22;40782;47.264;11.330;2022-12-10T09:56:30;2.00;1.00
29547;DHT22;40782;47.264;11.330;2022-12-10T09:59:02;2.00;1.00
29547;DHT22;40782;47.264;11.330;2022-12-10T10:01:32;2.10;1.00
29547;DHT22;40782;47.264;11.330;2022-12-10T10:04:03;2.10;99.90
29547;DHT22;40782;47.264;11.330;2022-12-10T10:06:30;2.00;99.90
29547;DHT22;40782;47.264;11.330;2022-12-10T10:09:01;2.00;99.90
29547;DHT22;40782;47.264;11.330;2022-12-10T10:11:30;2.10;99.90
29547;DHT22;40782;47.264;11.330;2022-12-10T10:14:03;2.10;99.90
29547;DHT22;40782;47.264;11.330;2022-12-10T10:16:33;2.00;99.90
29547;DHT22;40782;47.264;11.330;2022-12-10T10:19:04;2.00;99.90
29547;DHT22;40782;47.264;11.330;2022-12-10T10:21:35;2.00;99.90
29547;DHT22;40782;47.264;11.330;2022-12-10T10:24:03;2.00;99.90
29547;DHT22;40782;47.264;11.330;2022-12-10T10:26:32;2.10;99.90
29547;DHT22;40782;47.264;11.330;2022-12-10T10:29:04;2.20;99.90
29547;DHT22;40782;47.264;11.330;2022-12-10T10:31:35;2.20;99.90
29547;DHT22;40782;47.264;11.330;2022-12-10T10:34:04;2.10;99.90
29547;DHT22;40782;47.264;11.330;2022-12-10T10:36:33;2.10;99.90
29547;DHT22;40782;47.264;11.330;2022-12-10T10:39:08;2.10;43.40
29547;DHT22;40782;47.264;11.330;2022-12-10T10:41:38;2.10;51.50
29547;DHT22;40782;47.264;11.330;2022-12-10T10:44:14;2.10;99.90
29547;DHT22;40782;47.264;11.330;2022-12-10T10:46:42;2.10;99.90
29547;DHT22;40782;47.264;11.330;2022-12-10T10:49:25;2.20;99.90
29547;DHT22;40782;47.264;11.330;2022-12-10T10:51:54;2.20;99.90
29547;DHT22;40782;47.264;11.330;2022-12-10T10:54:38;2.20;99.90
29547;DHT22;40782;47.264;11.330;2022-12-10T10:57:11;2.30;43.50
29547;DHT22;40782;47.264;11.330;2022-12-10T10:59:40;2.30;1.00
29547;DHT22;40782;47.264;11.330;2022-12-10T11:02:17;2.30;1.00
29547;DHT22;40782;47.264;11.330;2022-12-10T11:04:47;2.30;1.00
29547;DHT22;40782;47.264;11.330;2022-12-10T11:07:21;2.30;1.00
29547;DHT22;40782;47.264;11.330;2022-12-10T11:09:49;2.30;1.00
29547;DHT22;40782;47.264;11.330;2022-12-10T11:12:33;2.30;1.00
29547;DHT22;40782;47.264;11.330;2022-12-10T11:15:28;2.30;1.00
29547;DHT22;40782;47.264;11.330;2022-12-10T11:17:56;2.30;1.00
29547;DHT22;40782;47.264;11.330;2022-12-10T11:20:26;2.30;1.00
29547;DHT22;40782;47.264;11.330;2022-12-10T11:22:55;2.30;1.00
29547;DHT22;40782;47.264;11.330;2022-12-10T11:25:34;2.40;1.00
29547;DHT22;40782;47.264;11.330;2022-12-10T11:28:10;2.40;1.00
29547;DHT22;40782;47.264;11.330;2022-12-10T11:30:45;2.40;1.00
29547;DHT22;40782;47.264;11.330;2022-12-10T11:33:21;2.40;1.00
29547;DHT22;40782;47.264;11.330;2022-12-10T11:35:58;2.40;1.00
29547;DHT22;40782;47.264;11.330;2022-12-10T11:38:30;2.40;1.00
29547;DHT22;40782;47.264;11.330;2022-12-10T11:41:08;2.40;1.00
29547;DHT22;40782;47.264;11.330;2022-12-10T11:43:51;2.40;1.00
29547;DHT22;40782;47.264;11.330;2022-12-10T11:46:35;2.40;1.00
29547;DHT22;40782;47.264;11.330;2022-12-10T11:49:16;2.30;1.00
29547;DHT22;40782;47.264;11.330;2022-12-10T11:51:52;2.30;1.00
29547;DHT22;40782;47.264;11.330;2022-12-10T11:54:44;2.20;1.00
29547;DHT22;40782;47.264;11.330;2022-12-10T11:57:23;2.20;1.00
29547;DHT22;40782;47.264;11.330;2022-12-10T12:00:00;2.30;1.00
29547;DHT22;40782;47.264;11.330;2022-12-10T12:02:46;2.40;1.00
29547;DHT22;40782;47.264;11.330;2022-12-10T12:05:24;2.30;1.00
29547;DHT22;40782;47.264;11.330;2022-12-10T12:07:59;2.30;1.00
29547;DHT22;40782;47.264;11.330;2022-12-10T12:10:46;2.30;1.00
29547;DHT22;40782;47.264;11.330;2022-12-10T12:13:19;2.30;1.00
29547;DHT22;40782;47.264;11.330;2022-12-10T12:15:50;2.20;1.00
29547;DHT22;40782;47.264;11.330;2022-12-10T12:18:22;2.20;1.00
29547;DHT22;40782;47.264;11.330;2022-12-10T12:20:53;2.20;1.00
29547;DHT22;40782;47.264;11.330;2022-12-10T12:23:25;2.30;1.00
29547;DHT22;40782;47.264;11.330;2022-12-10T12:25:55;2.20;1.00
29547;DHT22;40782;47.264;11.330;2022-12-10T12:28:26;2.30;1.00
29547;DHT22;40782;47.264;11.330;2022-12-10T12:31:02;2.20;1.00
29547;DHT22;40782;47.264;11.330;2022-12-10T12:33:40;2.20;1.00
29547;DHT22;40782;47.264;11.330;2022-12-10T12:36:12;2.10;1.00
29547;DHT22;40782;47.264;11.330;2022-12-10T12:38:45;2.10;1.00
29547;DHT22;40782;47.264;11.330;2022-12-10T12:41:16;2.10;1.00
29547;DHT22;40782;47.264;11.330;2022-12-10T12:43:49;2.10;1.00
29547;DHT22;40782;47.264;11.330;2022-12-10T12:46:33;2.00;1.00
29547;DHT22;40782;47.264;11.330;2022-12-10T12:49:09;2.00;1.00
29547;DHT22;40782;47.264;11.330;2022-12-10T12:51:40;2.00;1.00
29547;DHT22;40782;47.264;11.330;2022-12-10T12:54:10;2.00;1.00
29547;DHT22;40782;47.264;11.330;2022-12-10T12:56:55;1.90;1.00
29547;DHT22;40782;47.264;11.330;2022-12-10T12:59:39;2.00;38.40
29547;DHT22;40782;47.264;11.330;2022-12-10T13:02:18;2.00;57.90
29547;DHT22;40782;47.264;11.330;2022-12-10T13:04:48;2.00;6.30
29547;DHT22;40782;47.264;11.330;2022-12-10T13:07:34;2.00;1.00
29547;DHT22;40782;47.264;11.330;2022-12-10T13:10:24;1.90;18.20
29547;DHT22;40782;47.264;11.330;2022-12-10T13:13:15;1.90;40.70
29547;DHT22;40782;47.264;11.330;2022-12-10T13:15:43;1.90;27.50
29547;DHT22;40782;47.264;11.330;2022-12-10T13:18:23;1.90;45.80
29547;DHT22;40782;47.264;11.330;2022-12-10T13:21:25;1.90;99.90
29547;DHT22;40782;47.264;11.330;2022-12-10T13:23:53;1.90;99.90
29547;DHT22;40782;47.264;11.330;2022-12-10T13:26:25;1.90;99.90
29547;DHT22;40782;47.264;11.330;2022-12-10T13:28:54;1.90;99.90
29547;DHT22;40782;47.264;11.330;2022-12-10T13:31:35;1.90;99.90
29547;DHT22;40782;47.264;11.330;2022-12-10T13:34:21;1.80;99.90
29547;DHT22;40782;47.264;11.330;2022-12-10T13:37:17;1.80;1.00
29547;DHT22;40782;47.264;11.330;2022-12-10T13:39:53;1.90;1.00
29547;DHT22;40782;47.264;11.330;2022-12-10T13:42:32;1.90;1.00
29547;DHT22;40782;47.264;11.330;2022-12-10T13:45:27;1.80;1.00
29547;DHT22;40782;47.264;11.330;2022-12-10T13:48:15;1.80;1.00
29547;DHT22;40782;47.264;11.330;2022-12-10T13:50:46;1.80;1.00
29547;DHT22;40782;47.264;11.330;2022-12-10T13:53:23;1.80;1.00
29547;DHT22;40782;47.264;11.330;2022-12-10T13:56:01;1.80;1.00
29547;DHT22;40782;47.264;11.330;2022-12-10T13:58:39;1.80;1.00
29547;DHT22;40782;47.264;11.330;2022-12-10T14:01:13;1.80;1.00
29547;DHT22;40782;47.264;11.330;2022-12-10T14:04:16;1.80;1.00
29547;DHT22;40782;47.264;11.330;2022-12-10T14:06:48;1.80;1.00
29547;DHT22;40782;47.264;11.330;2022-12-10T14:09:21;1.70;1.00
29547;DHT22;40782;47.264;11.330;2022-12-10T14:11:54;1.70;1.00
29547;DHT22;40782;47.264;11.330;2022-12-10T14:14:25;1.70;99.90
29547;DHT22;40782;47.264;11.330;2022-12-10T14:16:56;1.70;99.90
29547;DHT22;40782;47.264;11.330;2022-12-10T14:19:27;1.70;99.90
29547;DHT22;40782;47.264;11.330;2022-12-10T14:21:55;1.80;99.90
29547;DHT22;40782;47.264;11.330;2022-12-10T14:24:32;1.80;26.10
29547;DHT22;40782;47.264;11.330;2022-12-10T14:27:02;1.70;1.00
29547;DHT22;40782;47.264;11.330;2022-12-10T14:29:30;1.70;1.00
29547;DHT22;40782;47.264;11.330;2022-12-10T14:31:58;1.70;1.00
29547;DHT22;40782;47.264;11.330;2022-12-10T14:34:27;1.70;28.50
29547;DHT22;40782;47.264;11.330;2022-12-10T14:36:57;1.70;15.40
29547;DHT22;40782;47.264;11.330;2022-12-10T14:39:27;1.70;16.40
29547;DHT22;40782;47.264;11.330;2022-12-10T14:41:58;1.70;99.90
29547;DHT22;40782;47.264;11.330;2022-12-10T14:44:26;1.60;99.90
29547;DHT22;40782;47.264;11.330;2022-12-10T14:47:04;1.60;1.00
29547;DHT22;40782;47.264;11.330;2022-12-10T14:49:32;1.60;1.00
29547;DHT22;40782;47.264;11.330;2022-12-10T14:52:00;1.60;1.00
29547;DHT22;40782;47.264;11.330;2022-12-10T14:54:29;1.60;1.00
29547;DHT22;40782;47.264;11.330;2022-12-10T14:57:00;1.60;1.00
29547;DHT22;40782;47.264;11.330;2022-12-10T14:59:31;1.50;1.00
29547;DHT22;40782;47.264;11.330;2022-12-10T15:02:04;1.50;1.00
29547;DHT22;40782;47.264;11.330;2022-12-10T15:04:42;1.50;99.90
29547;DHT22;40782;47.264;11.330;2022-12-10T15:07:14;1.50;99.90
29547;DHT22;40782;47.264;11.330;2022-12-10T15:09:46;1.50;1.00
29547;DHT22;40782;47.264;11.330;2022-12-10T15:12:25;1.50;1.00
29547;DHT22;40782;47.264;11.330;2022-12-10T15:14:54;1.60;1.00
29547;DHT22;40782;47.264;11.330;2022-12-10T15:17:38;1.50;1.00
29547;DHT22;40782;47.264;11.330;2022-12-10T15:20:23;1.50;1.00
29547;DHT22;40782;47.264;11.330;2022-12-10T15:22:51;1.50;1.00
29547;DHT22;40782;47.264;11.330;2022-12-10T15:25:25;1.50;1.00
29547;DHT22;40782;47.264;11.330;2022-12-10T15:28:01;1.50;1.00
29547;DHT22;40782;47.264;11.330;2022-12-10T15:30:37;1.40;1.00
29547;DHT22;40782;47.264;11.330;2022-12-10T15:33:20;1.40;1.00
29547;DHT22;40782;47.264;11.330;2022-12-10T15:35:49;1.40;1.00
29547;DHT22;40782;47.264;11.330;2022-12-10T15:38:16;1.40;1.00
29547;DHT22;40782;47.264;11.330;2022-12-10T15:40:43;1.50;26.40
29547;DHT22;40782;47.264;11.330;2022-12-10T15:43:25;1.50;1.00
29547;DHT22;40782;47.264;11.330;2022-12-10T15:45:52;1.40;1.00
29547;DHT22;40782;47.264;11.330;2022-12-10T15:48:20;1.40;1.00
29547;DHT22;40782;47.264;11.330;2022-12-10T15:50:50;1.40;6.10
29547;DHT22;40782;47.264;11.330;2022-12-10T15:53:24;1.40;1.00
29547;DHT22;40782;47.264;11.330;2022-12-10T15:55:52;1.40;1.00
29547;DHT22;40782;47.264;11.330;2022-12-10T15:58:21;1.40;1.00
29547;DHT22;40782;47.264;11.330;2022-12-10T16:00:48;1.30;99.90
29547;DHT22;40782;47.264;11.330;2022-12-10T16:03:16;1.40;99.90
29547;DHT22;40782;47.264;11.330;2022-12-10T16:05:44;1.40;99.90